Time;durP1;ratioP1;P1;durP2;ratioP2;P2;SDS_P1;SDS_P2;PMS_P1;PMS_P2;Temp;Humidity;BMP_temperature;BMP_pressure;BME280_temperature;BME280_humidity;BME280_pressure;Samples;Min_cycle;Max_cycle;Signal;HPM_P1;HPM_P2
2021/11/08 00:01:06;;;;;;;;;24.60;24.20;;;;;12.44;59.24;101753.34;2088138;28;47359;-59
2021/11/08 00:02:08;;;;;;;;;25.60;24.20;;;;;12.43;59.21;101767.56;2081106;28;46251;-58
2021/11/08 00:03:12;;;;;;;;;24.80;22.60;;;;;12.43;59.13;101756.91;2080164;28;47464;-58
2021/11/08 00:04:12;;;;;;;;;24.80;20.80;;;;;12.44;59.10;101760.44;2087542;28;45351;-59
2021/11/08 00:05:13;;;;;;;;;21.50;21.50;;;;;12.43;59.31;101759.56;2083422;28;48210;-58
2021/11/08 00:06:16;;;;;;;;;21.25;19.00;;;;;12.42;59.32;101762.25;2087111;28;47445;-59
2021/11/08 00:07:17;;;;;;;;;25.60;23.40;;;;;12.42;59.48;101749.81;2086478;28;48247;-59
2021/11/08 00:08:18;;;;;;;;;21.20;21.00;;;;;12.42;59.28;101746.28;2085086;28;47317;-59
2021/11/08 00:09:19;;;;;;;;;20.50;20.50;;;;;12.41;59.49;101737.41;2084184;28;47237;-59
2021/11/08 00:10:27;;;;;;;;;21.80;20.00;;;;;12.40;59.25;101740.97;2077126;28;47101;-58
2021/11/08 00:11:27;;;;;;;;;23.80;23.80;;;;;12.40;59.29;101740.97;2079169;28;46228;-59
2021/11/08 00:12:28;;;;;;;;;26.75;24.00;;;;;12.39;59.34;101739.22;2087915;28;47268;-58
2021/11/08 00:13:29;;;;;;;;;32.00;27.25;;;;;12.37;59.46;101736.56;2085232;28;47318;-58
2021/11/08 00:14:30;;;;;;;;;27.40;24.00;;;;;12.38;59.51;101741.00;2088852;28;47135;-58
2021/11/08 00:17:01;;;;;;;;;19.80;19.80;;;;;12.38;59.54;101738.34;2081450;28;46166;-58
2021/11/08 00:18:11;;;;;;;;;25.60;21.60;;;;;12.37;59.49;101738.34;2084139;28;47190;-58
2021/11/08 00:20:41;;;;;;;;;20.80;18.40;;;;;12.37;59.63;101739.25;2086789;28;47381;-58
2021/11/08 00:21:47;;;;;;;;;24.00;21.00;;;;;12.37;59.41;101744.56;2087261;28;46146;-58
2021/11/08 00:22:48;;;;;;;;;19.80;18.80;;;;;12.37;59.50;101743.69;2085099;28;47319;-58
2021/11/08 00:23:50;;;;;;;;;19.00;16.50;;;;;12.36;59.54;101752.56;2077395;28;48201;-58
2021/11/08 00:24:52;;;;;;;;;25.00;23.40;;;;;12.33;59.39;101741.97;2078926;28;45664;-58
2021/11/08 00:25:52;;;;;;;;;21.00;20.60;;;;;12.33;59.65;101748.16;2089037;28;45729;-58
2021/11/08 00:26:54;;;;;;;;;25.25;21.50;;;;;12.31;59.74;101746.41;2085067;28;47116;-58
2021/11/08 00:27:55;;;;;;;;;22.20;21.40;;;;;12.31;59.60;101749.06;2085343;28;47158;-58
2021/11/08 00:28:56;;;;;;;;;20.00;18.20;;;;;12.30;59.53;101737.53;2085030;28;47418;-58
2021/11/08 00:29:57;;;;;;;;;23.75;22.75;;;;;12.30;59.53;101742.88;2084376;28;47528;-58
2021/11/08 00:30:57;;;;;;;;;22.00;19.60;;;;;12.28;59.50;101744.66;2088630;28;47758;-58
2021/11/08 00:31:58;;;;;;;;;14.00;14.00;;;;;12.29;59.55;101749.09;2084545;28;47326;-58
2021/11/08 00:32:59;;;;;;;;;20.50;20.50;;;;;12.28;59.53;101747.34;2079718;28;48353;-58
2021/11/08 00:33:59;;;;;;;;;18.25;15.75;;;;;12.29;59.88;101748.22;2079058;28;48348;-58
2021/11/08 00:35:00;;;;;;;;;23.25;22.25;;;;;12.29;59.61;101748.22;2079888;28;48017;-58
2021/11/08 00:36:01;;;;;;;;;23.50;19.25;;;;;12.27;59.66;101737.59;2077336;28;46835;-57
2021/11/08 00:37:02;;;;;;;;;22.60;18.60;;;;;12.28;59.64;101733.16;2072413;28;47402;-60
2021/11/08 00:38:04;;;;;;;;;20.25;20.00;;;;;12.28;59.57;101739.34;2062797;28;48231;-57
2021/11/08 00:39:05;;;;;;;;;17.80;15.40;;;;;12.28;59.69;101743.78;2075468;28;46915;-58
2021/11/08 00:40:06;;;;;;;;;18.25;16.25;;;;;12.26;59.52;101751.78;2086361;28;47331;-62
2021/11/08 00:41:07;;;;;;;;;16.20;16.20;;;;;12.26;59.65;101753.56;2080225;28;48243;-58
2021/11/08 00:42:07;;;;;;;;;24.25;21.50;;;;;12.26;59.72;101753.56;2077515;28;47084;-58
2021/11/08 00:43:08;;;;;;;;;23.00;19.00;;;;;12.24;59.71;101752.72;2075356;28;46703;-61
2021/11/08 00:44:09;;;;;;;;;19.80;18.60;;;;;12.24;59.72;101750.94;2076654;28;47793;-58
2021/11/08 00:45:11;;;;;;;;;18.50;15.50;;;;;12.24;59.75;101753.59;2079676;28;48430;-58
2021/11/08 00:46:12;;;;;;;;;19.20;18.60;;;;;12.24;59.69;101750.06;2070809;28;48473;-58
2021/11/08 00:47:13;;;;;;;;;22.25;22.25;;;;;12.23;59.71;101743.84;2076478;28;46073;-58
2021/11/08 00:48:16;;;;;;;;;15.40;14.60;;;;;12.22;59.78;101746.53;2086189;28;47289;-57
2021/11/08 00:49:17;;;;;;;;;16.40;16.00;;;;;12.22;59.92;101749.19;2086314;28;48272;-57
2021/11/08 00:50:18;;;;;;;;;18.25;17.75;;;;;12.20;59.73;101743.91;2085237;28;46905;-57
2021/11/08 00:51:19;;;;;;;;;18.40;17.00;;;;;12.20;59.85;101746.56;2077486;28;47277;-59
2021/11/08 00:52:19;;;;;;;;;21.00;18.50;;;;;12.20;59.92;101743.03;2078112;28;47282;-59
2021/11/08 00:53:20;;;;;;;;;16.50;16.50;;;;;12.19;59.77;101742.09;2088647;28;48345;-59
2021/11/08 00:54:21;;;;;;;;;20.75;18.25;;;;;12.18;59.79;101739.47;2086369;28;48372;-59
2021/11/08 00:55:23;;;;;;;;;21.00;20.00;;;;;12.18;59.76;101743.00;2085984;28;47446;-57
2021/11/08 00:56:25;;;;;;;;;19.40;17.20;;;;;12.17;59.82;101738.59;2086701;28;48300;-57
2021/11/08 00:57:30;;;;;;;;;21.40;18.20;;;;;12.18;59.83;101745.66;2085353;28;47290;-58
2021/11/08 00:58:38;;;;;;;;;19.40;19.40;;;;;12.18;59.96;101736.81;2086246;28;45740;-57
2021/11/08 00:59:39;;;;;;;;;19.20;17.80;;;;;12.18;59.90;101739.47;2085957;28;47903;-58
2021/11/08 01:00:40;;;;;;;;;20.40;18.40;;;;;12.17;59.92;101748.34;2081964;28;47983;-58
2021/11/08 01:01:42;;;;;;;;;19.20;18.00;;;;;12.16;60.00;101749.25;2082795;28;46356;-58
2021/11/08 01:02:43;;;;;;;;;12.60;12.00;;;;;12.15;59.89;101755.47;2086964;28;47953;-57
2021/11/08 01:03:45;;;;;;;;;17.80;15.00;;;;;12.15;60.13;101755.47;2085645;28;48077;-61
2021/11/08 01:04:45;;;;;;;;;15.40;15.00;;;;;12.14;60.07;101749.28;2086170;28;47302;-58
2021/11/08 01:05:46;;;;;;;;;19.25;19.25;;;;;12.14;60.28;101745.75;2082400;28;47364;-57
2021/11/08 01:06:48;;;;;;;;;26.75;21.00;;;;;12.14;59.95;101756.38;2081693;28;47437;-57
2021/11/08 01:07:49;;;;;;;;;24.40;19.00;;;;;12.13;60.16;101755.50;2084723;28;47086;-57
2021/11/08 01:08:50;;;;;;;;;22.40;22.00;;;;;12.13;60.10;101758.16;2085623;28;47493;-58
2021/11/08 01:09:51;;;;;;;;;24.75;22.75;;;;;12.13;60.09;101749.31;2088567;28;47220;-57
2021/11/08 01:10:51;;;;;;;;;21.25;19.00;;;;;12.11;59.95;101751.09;2085380;28;48277;-58
2021/11/08 01:11:52;;;;;;;;;21.75;18.00;;;;;12.10;60.21;101755.53;2086004;28;47143;-58
2021/11/08 01:12:53;;;;;;;;;17.50;15.75;;;;;12.10;60.01;101755.53;2084873;28;48904;-57
2021/11/08 01:13:53;;;;;;;;;20.75;18.25;;;;;12.08;59.84;101757.34;2087354;28;46890;-57
2021/11/08 01:14:54;;;;;;;;;19.25;16.50;;;;;12.07;60.24;101756.47;2087267;28;47239;-57
2021/11/08 01:15:57;;;;;;;;;20.20;19.20;;;;;12.06;59.96;101760.00;2088163;28;47603;-58
2021/11/08 01:16:58;;;;;;;;;18.60;18.60;;;;;12.07;60.05;101759.13;2088028;28;47160;-58
2021/11/08 01:17:58;;;;;;;;;20.00;17.50;;;;;12.05;60.22;101758.22;2087453;28;47138;-58
2021/11/08 01:18:59;;;;;;;;;23.00;19.25;;;;;12.04;60.26;101750.28;2085760;28;47099;-58
2021/11/08 01:20:00;;;;;;;;;19.25;17.25;;;;;12.04;60.42;101747.63;2089662;28;47899;-58
2021/11/08 01:21:02;;;;;;;;;17.25;17.25;;;;;12.03;60.21;101754.72;2087547;28;47517;-58
2021/11/08 01:22:07;;;;;;;;;19.20;15.20;;;;;12.03;59.99;101748.50;2077038;28;47974;-56
2021/11/08 01:23:07;;;;;;;;;16.80;16.20;;;;;12.01;60.17;101756.53;2073095;28;46449;-57
2021/11/08 01:24:08;;;;;;;;;14.00;14.00;;;;;12.02;60.20;101752.06;2081985;28;47134;-57
2021/11/08 01:25:10;;;;;;;;;14.25;14.00;;;;;12.01;59.94;101755.63;2081871;28;48117;-58
2021/11/08 01:26:13;;;;;;;;;19.80;17.80;;;;;12.00;60.33;101753.88;2081982;28;47383;-58
2021/11/08 01:27:13;;;;;;;;;17.40;15.40;;;;;11.98;60.21;101748.59;2087220;28;47311;-57
2021/11/08 01:28:14;;;;;;;;;17.50;17.00;;;;;12.00;60.22;101745.91;2087186;28;48353;-58
2021/11/08 01:29:14;;;;;;;;;17.50;15.25;;;;;11.99;60.38;101744.13;2087814;28;47810;-57
2021/11/08 01:30:19;;;;;;;;;21.75;19.00;;;;;11.97;60.45;101738.84;2085857;28;47294;-58
2021/11/08 01:31:20;;;;;;;;;13.00;12.00;;;;;11.97;60.54;101741.50;2086279;28;46560;-57
2021/11/08 01:32:20;;;;;;;;;18.80;17.80;;;;;11.96;60.28;101744.19;2085216;28;47323;-58
2021/11/08 01:33:22;;;;;;;;;16.50;15.75;;;;;11.96;60.47;101747.72;2087624;28;48397;-58
2021/11/08 01:34:25;;;;;;;;;17.00;14.60;;;;;11.96;60.23;101750.38;2078696;28;47334;-58
2021/11/08 01:35:37;;;;;;;;;19.20;16.00;;;;;11.97;60.28;101748.59;2079166;28;47053;-57
2021/11/08 01:36:39;;;;;;;;;15.00;14.60;;;;;11.95;60.49;101745.97;2087569;28;47379;-58
2021/11/08 01:37:48;;;;;;;;;19.80;17.00;;;;;11.95;60.38;101737.97;2084781;28;47167;-58
2021/11/08 01:38:50;;;;;;;;;18.80;18.40;;;;;11.97;60.30;101740.63;2076477;28;47607;-58
2021/11/08 01:39:51;;;;;;;;;18.80;17.80;;;;;11.95;60.49;101732.66;2075403;28;47061;-57
2021/11/08 01:40:53;;;;;;;;;15.40;15.40;;;;;11.95;60.49;101737.09;2078079;28;47367;-57
2021/11/08 01:41:53;;;;;;;;;19.40;15.20;;;;;11.94;60.32;101738.88;2079196;28;45269;-56
2021/11/08 01:42:53;;;;;;;;;18.25;15.75;;;;;11.94;60.33;101738.88;2086792;28;47192;-58
2021/11/08 01:43:54;;;;;;;;;19.00;16.25;;;;;11.93;60.46;101736.22;2083798;28;45286;-57
2021/11/08 01:44:54;;;;;;;;;14.00;12.00;;;;;11.93;60.42;101739.75;2084723;28;47354;-58
2021/11/08 01:45:55;;;;;;;;;17.00;16.50;;;;;11.93;60.47;101736.22;2088302;28;48176;-58
2021/11/08 01:47:01;;;;;;;;;20.50;19.75;;;;;11.92;60.51;101738.00;2086470;28;48117;-58
2021/11/08 01:48:02;;;;;;;;;15.60;13.80;;;;;11.92;60.55;101735.31;2085732;28;47174;-57
2021/11/08 01:49:02;;;;;;;;;14.00;13.50;;;;;11.92;60.61;101735.31;2085352;28;47122;-57
2021/11/08 01:50:04;;;;;;;;;18.00;14.75;;;;;11.90;60.45;101731.81;2077088;28;47168;-58
2021/11/08 01:51:05;;;;;;;;;22.20;18.60;;;;;11.90;60.52;101723.84;2078464;28;47109;-57
2021/11/08 01:52:07;;;;;;;;;19.00;17.80;;;;;11.90;60.55;101733.59;2087361;28;46932;-58
2021/11/08 01:53:08;;;;;;;;;20.20;15.80;;;;;11.88;60.43;101727.41;2086652;28;48106;-56
2021/11/08 01:54:09;;;;;;;;;14.50;14.00;;;;;11.86;60.40;101735.41;2086632;28;47089;-56
2021/11/08 01:55:10;;;;;;;;;15.40;14.60;;;;;11.86;60.51;101737.19;2083772;28;46804;-57
2021/11/08 01:56:11;;;;;;;;;13.00;12.75;;;;;11.85;60.51;101740.75;2087593;28;47450;-57
2021/11/08 01:57:13;;;;;;;;;15.75;14.25;;;;;11.84;60.38;101742.53;2087203;28;47237;-56
2021/11/08 01:58:14;;;;;;;;;16.80;15.20;;;;;11.86;60.83;101742.50;2081431;28;48547;-57
2021/11/08 01:59:14;;;;;;;;;20.00;18.60;;;;;11.86;60.60;101738.06;2074484;28;47969;-57
2021/11/08 02:00:16;;;;;;;;;18.00;17.00;;;;;11.87;60.71;101733.63;2074295;28;47193;-60
2021/11/08 02:01:17;;;;;;;;;18.20;16.00;;;;;11.88;60.58;101736.28;2078118;28;47280;-58
2021/11/08 02:02:18;;;;;;;;;19.00;15.25;;;;;11.86;60.57;101735.41;2081990;28;46782;-58
2021/11/08 02:03:19;;;;;;;;;17.25;17.25;;;;;11.86;60.71;101732.75;2082061;28;47219;-58
2021/11/08 02:04:21;;;;;;;;;16.80;14.20;;;;;11.85;60.70;101738.97;2084490;28;47400;-58
2021/11/08 02:05:22;;;;;;;;;17.40;16.00;;;;;11.85;60.72;101731.00;2084709;28;48339;-58
2021/11/08 02:06:22;;;;;;;;;18.00;16.60;;;;;11.85;60.57;101731.00;2087579;28;47155;-58
2021/11/08 02:07:23;;;;;;;;;16.50;15.25;;;;;11.84;60.64;101729.22;2085282;28;47414;-58
2021/11/08 02:08:24;;;;;;;;;24.50;23.25;;;;;11.84;60.62;101729.22;2085613;28;47353;-58
2021/11/08 02:09:24;;;;;;;;;18.50;18.00;;;;;11.84;60.68;101728.34;2083885;28;47535;-58
2021/11/08 02:10:25;;;;;;;;;21.25;17.75;;;;;11.83;60.71;101727.47;2085281;28;47271;-58
2021/11/08 02:11:26;;;;;;;;;19.25;19.00;;;;;11.83;60.63;101723.94;2083305;28;48661;-58
2021/11/08 02:12:27;;;;;;;;;18.25;16.25;;;;;11.83;60.75;101729.25;2085356;28;47297;-58
2021/11/08 02:13:28;;;;;;;;;14.80;14.80;;;;;11.83;60.56;101730.13;2088543;28;47422;-58
2021/11/08 02:14:28;;;;;;;;;16.25;15.00;;;;;11.82;60.76;101724.84;2085387;28;45639;-58
2021/11/08 02:15:29;;;;;;;;;17.50;16.00;;;;;11.81;60.63;101723.03;2087177;28;47145;-59
2021/11/08 02:16:31;;;;;;;;;16.60;15.40;;;;;11.81;60.50;101728.34;2081463;28;46338;-58
2021/11/08 02:17:33;;;;;;;;;17.80;14.80;;;;;11.80;60.65;101722.16;2081426;28;46396;-58
2021/11/08 02:18:35;;;;;;;;;17.60;14.80;;;;;11.79;60.85;101725.72;2086527;28;47118;-58
2021/11/08 02:19:36;;;;;;;;;16.80;16.20;;;;;11.78;60.77;101723.94;2089546;28;47308;-58
2021/11/08 02:20:41;;;;;;;;;17.75;17.75;;;;;11.78;60.89;101723.94;2083813;28;45688;-58
2021/11/08 02:21:41;;;;;;;;;15.00;15.00;;;;;11.78;60.70;101719.50;2085614;28;48114;-58
2021/11/08 02:22:44;;;;;;;;;18.50;17.75;;;;;11.78;60.79;101727.47;2086406;28;47110;-58
2021/11/08 02:23:48;;;;;;;;;20.00;18.20;;;;;11.78;60.78;101718.59;2086794;28;47320;-57
2021/11/08 02:24:49;;;;;;;;;17.40;16.80;;;;;11.78;60.85;101723.94;2081747;28;47370;-57
2021/11/08 02:25:53;;;;;;;;;16.20;15.00;;;;;11.77;60.77;101723.06;2081526;28;46815;-57
2021/11/08 02:26:53;;;;;;;;;16.60;14.80;;;;;11.77;60.96;101722.16;2084515;28;47781;-57
2021/11/08 02:27:55;;;;;;;;;19.75;17.75;;;;;11.76;60.79;101718.63;2086697;28;48219;-58
2021/11/08 02:28:55;;;;;;;;;18.60;13.80;;;;;11.75;60.87;101719.53;2086374;28;47291;-58
2021/11/08 02:29:56;;;;;;;;;18.00;16.33;;;;;11.75;60.70;101719.53;2084084;28;47872;-58
2021/11/08 02:30:58;;;;;;;;;13.50;13.50;;;;;11.75;60.75;101721.31;2090103;28;49757;-58
2021/11/08 02:32:00;;;;;;;;;17.60;17.60;;;;;11.73;60.86;101720.44;2086521;28;47268;-58
2021/11/08 02:33:00;;;;;;;;;13.20;10.80;;;;;11.71;60.75;101725.78;2086632;28;47749;-58
2021/11/08 02:34:01;;;;;;;;;18.50;16.50;;;;;11.71;60.73;101722.25;2085263;28;47626;-58
2021/11/08 02:35:05;;;;;;;;;18.50;15.75;;;;;11.70;60.95;101726.69;2086951;28;47193;-57
2021/11/08 02:36:07;;;;;;;;;15.20;14.80;;;;;11.69;60.89;101722.25;2083034;28;47044;-58
2021/11/08 02:37:08;;;;;;;;;20.40;16.40;;;;;11.69;61.08;101721.38;2087220;28;47935;-59
2021/11/08 02:38:19;;;;;;;;;17.20;15.20;;;;;11.69;60.79;101716.06;2084406;28;48424;-58
2021/11/08 02:39:28;;;;;;;;;15.80;13.80;;;;;11.68;60.87;101720.47;2086947;28;46876;-58
2021/11/08 02:40:30;;;;;;;;;18.80;18.00;;;;;11.67;60.95;101709.84;2079069;28;47250;-58
2021/11/08 02:41:30;;;;;;;;;18.00;17.00;;;;;11.68;60.95;101712.50;2079604;28;47318;-58
2021/11/08 02:42:31;;;;;;;;;14.50;14.25;;;;;11.69;61.20;101705.44;2076773;28;47095;-58
2021/11/08 02:43:32;;;;;;;;;14.80;12.40;;;;;11.69;60.90;101711.63;2075483;28;48316;-58
2021/11/08 02:44:33;;;;;;;;;13.00;11.25;;;;;11.68;61.07;101709.84;2087616;28;48122;-58
2021/11/08 02:45:35;;;;;;;;;17.25;15.25;;;;;11.68;61.09;101709.84;2086703;28;45816;-57
2021/11/08 02:46:41;;;;;;;;;18.00;15.20;;;;;11.67;60.89;101710.75;2087184;28;45438;-57
2021/11/08 02:47:43;;;;;;;;;17.40;16.40;;;;;11.67;61.13;101707.19;2073638;28;48188;-57
2021/11/08 02:48:48;;;;;;;;;20.20;16.00;;;;;11.66;61.10;101713.41;2079049;28;47389;-58
2021/11/08 02:49:52;;;;;;;;;19.00;16.80;;;;;11.66;60.76;101718.72;2084575;28;47496;-58
2021/11/08 02:51:04;;;;;;;;;17.40;15.00;;;;;11.65;60.98;101712.53;2073988;28;48011;-57
2021/11/08 02:52:07;;;;;;;;;17.00;16.20;;;;;11.65;61.20;101714.31;2081778;28;47269;-57
2021/11/08 02:53:13;;;;;;;;;28.00;26.20;;;;;11.65;61.18;101715.19;2081594;28;47478;-56
2021/11/08 02:54:24;;;;;;;;;25.40;24.40;;;;;11.64;60.89;101713.44;2073864;28;48541;-60
2021/11/08 02:55:27;;;;;;;;;22.40;21.80;;;;;11.64;61.02;101718.75;2080979;28;47499;-56
2021/11/08 02:56:27;;;;;;;;;23.20;21.80;;;;;11.64;60.99;101720.53;2076564;28;46212;-57
2021/11/08 02:57:28;;;;;;;;;20.50;18.75;;;;;11.63;61.15;101717.00;2080294;28;47878;-57
2021/11/08 02:58:29;;;;;;;;;15.60;15.40;;;;;11.64;60.91;101717.88;2082731;28;47123;-57
2021/11/08 02:59:31;;;;;;;;;17.25;17.00;;;;;11.63;61.12;101719.66;2082819;28;47037;-57
2021/11/08 03:00:32;;;;;;;;;21.80;20.20;;;;;11.63;61.06;101721.44;2074311;28;48341;-57
2021/11/08 03:01:33;;;;;;;;;15.75;15.25;;;;;11.62;61.33;101717.00;2076602;28;48408;-57
2021/11/08 03:02:36;;;;;;;;;18.00;16.25;;;;;11.61;61.04;101713.47;2075343;28;45382;-58
2021/11/08 03:03:41;;;;;;;;;17.80;14.80;;;;;11.61;61.15;101715.25;2071762;28;47530;-58
2021/11/08 03:04:45;;;;;;;;;19.60;16.60;;;;;11.61;61.22;101724.09;2083548;28;46807;-57
2021/11/08 03:05:45;;;;;;;;;18.20;17.00;;;;;11.60;61.25;101718.81;2084004;28;47248;-57
2021/11/08 03:06:46;;;;;;;;;17.50;15.75;;;;;11.59;61.28;101728.56;2085104;28;47749;-57
2021/11/08 03:07:47;;;;;;;;;16.00;15.00;;;;;11.59;61.05;101725.91;2083574;28;45457;-58
2021/11/08 03:08:49;;;;;;;;;16.80;14.40;;;;;11.59;61.21;101720.59;2081977;28;47500;-56
2021/11/08 03:09:58;;;;;;;;;14.60;13.80;;;;;11.59;61.46;101717.06;2082086;28;48755;-58
2021/11/08 03:10:59;;;;;;;;;19.20;15.40;;;;;11.57;61.25;101722.38;2083183;28;46571;-58
2021/11/08 03:12:08;;;;;;;;;17.80;17.80;;;;;11.57;61.27;101719.72;2085463;28;48573;-58
2021/11/08 03:13:16;;;;;;;;;19.00;16.60;;;;;11.58;61.49;101723.28;2075306;28;47856;-58
2021/11/08 03:14:20;;;;;;;;;16.80;15.20;;;;;11.56;61.17;101723.28;2079115;28;47996;-58
2021/11/08 03:16:55;;;;;;;;;14.80;14.80;;;;;11.57;61.39;101724.16;2066537;28;48646;-57
2021/11/08 03:18:05;;;;;;;;;15.00;13.60;;;;;11.56;61.28;101722.38;2088637;28;47116;-57
2021/11/08 03:20:19;;;;;;;;;18.20;17.20;;;;;11.56;61.28;101727.69;2077066;28;47640;-57
2021/11/08 03:21:21;;;;;;;;;15.20;14.20;;;;;11.55;61.38;101723.28;2078477;28;47335;-58
2021/11/08 03:22:25;;;;;;;;;15.25;13.75;;;;;11.55;61.44;101724.16;2085456;28;46323;-58
2021/11/08 03:23:27;;;;;;;;;17.60;16.00;;;;;11.54;61.14;101727.72;2086402;28;47032;-58
2021/11/08 03:26:01;;;;;;;;;12.80;12.80;;;;;11.53;61.38;101728.59;2090445;28;47527;-58
2021/11/08 03:27:13;;;;;;;;;13.60;13.60;;;;;11.54;61.29;101729.50;2080786;28;45464;-58
2021/11/08 03:28:14;;;;;;;;;19.00;15.60;;;;;11.54;61.33;101733.03;2083450;28;47199;-58
2021/11/08 03:29:15;;;;;;;;;16.33;15.00;;;;;11.54;61.51;101727.72;2086710;28;47539;-58
2021/11/08 03:30:19;;;;;;;;;18.20;14.20;;;;;11.55;61.44;101728.59;2080999;28;47083;-59
2021/11/08 03:31:20;;;;;;;;;15.50;13.75;;;;;11.56;61.57;101735.66;2079106;28;47847;-57
2021/11/08 03:32:23;;;;;;;;;13.50;12.25;;;;;11.56;61.43;101733.00;2083203;28;47256;-60
2021/11/08 03:33:25;;;;;;;;;16.25;13.00;;;;;11.55;61.41;101731.25;2082329;28;47092;-58
2021/11/08 03:34:26;;;;;;;;;18.00;16.20;;;;;11.57;61.75;101729.47;2082671;28;48164;-58
2021/11/08 03:35:28;;;;;;;;;14.40;13.80;;;;;11.57;61.61;101732.16;2077334;28;48211;-58
2021/11/08 03:36:28;;;;;;;;;16.60;16.60;;;;;11.58;61.54;101733.91;2079104;28;47419;-58
2021/11/08 03:37:39;;;;;;;;;15.75;14.75;;;;;11.58;61.31;101728.59;2086060;28;48303;-58
2021/11/08 03:38:40;;;;;;;;;13.40;13.20;;;;;11.57;61.52;101733.03;2085030;28;48065;-58
2021/11/08 03:39:40;;;;;;;;;13.50;12.25;;;;;11.57;61.28;101730.38;2082393;28;46596;-58
2021/11/08 03:40:44;;;;;;;;;15.00;15.00;;;;;11.57;61.63;101730.38;2082854;28;47588;-59
2021/11/08 03:41:46;;;;;;;;;11.00;10.60;;;;;11.58;61.46;101733.91;2084512;28;48103;-58
2021/11/08 03:42:48;;;;;;;;;19.80;16.40;;;;;11.57;61.26;101726.81;2086740;28;45332;-58
2021/11/08 03:43:49;;;;;;;;;14.20;13.00;;;;;11.57;61.21;101725.06;2084143;28;47111;-58
2021/11/08 03:44:49;;;;;;;;;19.50;16.50;;;;;11.56;61.48;101728.59;2082467;28;47302;-58
2021/11/08 03:45:50;;;;;;;;;17.75;15.75;;;;;11.57;61.35;101730.38;2084095;28;46855;-58
2021/11/08 03:46:51;;;;;;;;;17.00;17.00;;;;;11.57;61.48;101727.72;2084394;28;48809;-58
2021/11/08 03:47:53;;;;;;;;;12.50;10.00;;;;;11.58;61.28;101729.47;2079993;28;48263;-58
2021/11/08 03:48:53;;;;;;;;;16.40;16.40;;;;;11.58;61.28;101724.16;2076854;28;48178;-58
2021/11/08 03:49:54;;;;;;;;;17.00;15.00;;;;;11.59;61.50;101725.03;2082879;28;47093;-59
2021/11/08 03:50:54;;;;;;;;;18.75;17.75;;;;;11.60;61.32;101724.13;2087327;28;47023;-59
2021/11/08 03:51:55;;;;;;;;;14.00;12.00;;;;;11.59;61.23;101728.56;2084261;28;48270;-59
2021/11/08 03:52:56;;;;;;;;;16.67;15.33;;;;;11.60;61.36;101732.09;2082532;28;48426;-59
2021/11/08 03:53:56;;;;;;;;;16.75;14.25;;;;;11.59;61.32;101728.56;2076809;28;47455;-57
2021/11/08 03:54:57;;;;;;;;;16.75;16.75;;;;;11.59;61.35;101725.91;2076062;28;48037;-60
2021/11/08 03:55:57;;;;;;;;;14.25;12.50;;;;;11.59;61.38;101730.34;2082367;28;48365;-58
2021/11/08 03:56:58;;;;;;;;;17.75;13.25;;;;;11.58;61.47;101733.91;2084175;28;48479;-58
2021/11/08 03:57:59;;;;;;;;;19.00;19.00;;;;;11.58;61.31;101726.81;2090509;28;46745;-58
2021/11/08 03:59:02;;;;;;;;;17.20;16.40;;;;;11.58;61.34;101729.47;2090499;28;48227;-57
2021/11/08 04:00:12;;;;;;;;;23.80;20.20;;;;;11.57;61.26;101719.72;2081640;28;48254;-56
2021/11/08 04:01:14;;;;;;;;;20.20;19.00;;;;;11.58;61.15;101720.59;2081998;28;48124;-58
2021/11/08 04:02:14;;;;;;;;;16.60;14.80;;;;;11.57;61.35;101722.38;2087443;28;47046;-57
2021/11/08 04:03:15;;;;;;;;;19.00;17.75;;;;;11.57;61.36;101719.72;2086681;28;46925;-58
2021/11/08 04:04:16;;;;;;;;;18.25;14.50;;;;;11.57;61.33;101717.06;2081859;28;46345;-57
2021/11/08 04:05:18;;;;;;;;;18.75;16.25;;;;;11.56;61.25;101717.06;2083046;28;47487;-57
2021/11/08 04:06:19;;;;;;;;;18.80;14.80;;;;;11.55;61.30;101725.94;2091912;28;47631;-59
2021/11/08 04:07:20;;;;;;;;;16.50;16.50;;;;;11.54;61.30;101726.84;2087284;28;47367;-57
2021/11/08 04:08:21;;;;;;;;;16.75;16.75;;;;;11.53;61.61;101720.63;2084145;28;48229;-58
2021/11/08 04:09:22;;;;;;;;;20.60;19.00;;;;;11.52;61.22;101724.19;2090862;28;48293;-58
2021/11/08 04:10:24;;;;;;;;;14.25;12.75;;;;;11.53;61.44;101723.28;2086047;28;48243;-58
2021/11/08 04:11:25;;;;;;;;;21.20;17.80;;;;;11.53;60.94;101723.28;2089497;28;47273;-58
2021/11/08 04:12:28;;;;;;;;;16.60;15.20;;;;;11.52;61.48;101723.31;2089862;28;47315;-58
2021/11/08 04:13:33;;;;;;;;;20.00;18.00;;;;;11.50;61.38;101724.22;2084590;28;47305;-57
2021/11/08 04:14:36;;;;;;;;;20.20;20.20;;;;;11.50;61.67;101723.31;2091020;28;47408;-58
2021/11/08 04:15:41;;;;;;;;;18.40;17.60;;;;;11.49;61.26;101721.56;2091112;28;47351;-57
2021/11/08 04:16:43;;;;;;;;;18.80;17.80;;;;;11.49;61.50;101724.22;2084615;28;47241;-57
2021/11/08 04:17:46;;;;;;;;;19.60;17.40;;;;;11.48;61.25;101726.00;2091230;28;48008;-58
2021/11/08 04:18:50;;;;;;;;;17.40;17.40;;;;;11.47;61.49;101726.03;2086653;28;47789;-58
2021/11/08 04:19:52;;;;;;;;;17.60;17.20;;;;;11.46;61.29;101724.25;2085668;28;45269;-57
2021/11/08 04:20:54;;;;;;;;;18.20;17.00;;;;;11.44;61.60;101732.25;2090427;28;46210;-56
2021/11/08 04:21:58;;;;;;;;;19.25;15.75;;;;;11.41;61.64;101726.94;2085230;28;47466;-56
2021/11/08 04:22:59;;;;;;;;;18.00;17.40;;;;;11.40;61.63;101730.50;2083730;28;46876;-58
2021/11/08 04:23:59;;;;;;;;;20.60;18.60;;;;;11.39;61.79;101731.41;2088956;28;47500;-57
2021/11/08 04:25:00;;;;;;;;;19.75;17.00;;;;;11.39;61.58;101738.50;2084847;28;47312;-56
2021/11/08 04:26:03;;;;;;;;;19.00;17.40;;;;;11.38;61.69;101739.38;2084132;28;47434;-57
2021/11/08 04:27:03;;;;;;;;;17.20;16.00;;;;;11.38;61.52;101723.44;2087483;28;47446;-57
2021/11/08 04:28:04;;;;;;;;;17.25;14.00;;;;;11.37;61.41;101733.19;2085510;28;47902;-58
2021/11/08 04:29:05;;;;;;;;;16.75;14.25;;;;;11.36;61.61;101728.78;2080685;28;46504;-57
2021/11/08 04:30:07;;;;;;;;;19.50;16.25;;;;;11.35;61.55;101728.78;2077281;28;45687;-61
2021/11/08 04:31:09;;;;;;;;;14.80;14.20;;;;;11.34;61.60;101735.00;2084477;28;47967;-56
2021/11/08 04:32:09;;;;;;;;;15.60;12.00;;;;;11.32;61.63;101735.03;2089078;28;47301;-57
2021/11/08 04:33:17;;;;;;;;;14.25;14.25;;;;;11.33;61.80;101727.94;2084631;28;47578;-58
2021/11/08 04:34:20;;;;;;;;;21.60;19.20;;;;;11.31;61.66;101733.25;2075495;28;48293;-58
2021/11/08 04:38:51;;;;;;;;;16.75;16.75;;;;;11.29;62.06;101731.47;2078160;28;47194;-59
2021/11/08 04:40:21;;;;;;;;;21.40;19.20;;;;;11.28;61.70;101735.91;2087431;28;46243;-59
2021/11/08 04:42:52;;;;;;;;;15.40;15.40;;;;;11.29;61.69;101742.09;2088711;28;47168;-58
2021/11/08 04:44:02;;;;;;;;;15.25;15.25;;;;;11.29;62.18;101743.00;2086279;28;47415;-57
2021/11/08 04:53:31;;;;;;;;;17.20;13.20;;;;;11.29;61.68;101748.31;2091283;28;47339;-58
2021/11/08 05:30:15;;;;;;;;;13.50;13.50;;;;;11.57;61.72;101742.78;2083552;28;47417;-58
2021/11/08 05:31:15;;;;;;;;;16.75;15.25;;;;;11.57;61.75;101741.00;2084128;28;47297;-58
2021/11/08 05:32:16;;;;;;;;;17.00;13.00;;;;;11.58;61.66;101741.88;2084828;28;47369;-59
2021/11/08 05:33:17;;;;;;;;;17.25;14.75;;;;;11.59;61.76;101746.31;2084348;28;48162;-58
2021/11/08 05:34:18;;;;;;;;;17.50;16.50;;;;;11.60;61.61;101745.41;2088115;28;48601;-57
2021/11/08 05:35:20;;;;;;;;;16.60;15.80;;;;;11.61;61.76;101737.41;2087972;28;48212;-59
2021/11/08 05:36:20;;;;;;;;;16.40;14.80;;;;;11.62;61.71;101748.91;2084383;28;47477;-57
2021/11/08 05:37:24;;;;;;;;;15.75;15.75;;;;;11.63;61.54;101745.34;2081962;28;46451;-58
2021/11/08 05:38:25;;;;;;;;;15.00;14.00;;;;;11.62;61.63;101744.47;2082854;28;47177;-58
2021/11/08 05:39:25;;;;;;;;;16.75;15.50;;;;;11.62;61.41;101749.78;2085989;28;47054;-58